sensor_id;sensor_type;location;lat;lon;timestamp;pressure;altitude;pressure_sealevel;temperature;humidity
72558;BME280;60583;50.094;8.748;2023-04-06T00:01:31;100849.34;;;3.47;56.82
72558;BME280;60583;50.094;8.748;2023-04-06T00:03:57;100845.59;;;3.49;57.15
72558;BME280;60583;50.094;8.748;2023-04-06T00:06:22;100844.66;;;3.31;56.97
72558;BME280;60583;50.094;8.748;2023-04-06T00:08:48;100841.50;;;2.99;56.88
72558;BME280;60583;50.094;8.748;2023-04-06T00:11:13;100835.81;;;3.03;57.27
72558;BME280;60583;50.094;8.748;2023-04-06T00:13:39;100821.25;;;2.90;57.52
72558;BME280;60583;50.094;8.748;2023-04-06T00:16:04;100832.22;;;3.04;57.81
72558;BME280;60583;50.094;8.748;2023-04-06T00:18:51;100813.22;;;2.82;58.13
72558;BME280;60583;50.094;8.748;2023-04-06T00:21:16;100832.59;;;3.00;58.07
72558;BME280;60583;50.094;8.748;2023-04-06T00:23:41;100840.22;;;3.03;58.21
72558;BME280;60583;50.094;8.748;2023-04-06T00:26:09;100818.50;;;2.82;58.84
72558;BME280;60583;50.094;8.748;2023-04-06T00:28:37;100839.28;;;2.94;59.00
72558;BME280;60583;50.094;8.748;2023-04-06T00:31:02;100839.69;;;2.99;58.76
72558;BME280;60583;50.094;8.748;2023-04-06T00:33:28;100826.38;;;2.91;58.84
72558;BME280;60583;50.094;8.748;2023-04-06T00:35:53;100783.44;;;2.72;58.88
72558;BME280;60583;50.094;8.748;2023-04-06T00:38:18;100831.91;;;2.98;58.99
72558;BME280;60583;50.094;8.748;2023-04-06T00:40:44;100827.91;;;3.03;59.63
72558;BME280;60583;50.094;8.748;2023-04-06T00:43:13;100820.28;;;3.00;59.72
72558;BME280;60583;50.094;8.748;2023-04-06T00:45:39;100816.25;;;3.06;60.15
72558;BME280;60583;50.094;8.748;2023-04-06T00:48:05;100807.81;;;2.93;60.10
72558;BME280;60583;50.094;8.748;2023-04-06T00:50:31;100803.09;;;2.87;60.19
72558;BME280;60583;50.094;8.748;2023-04-06T00:52:57;100811.28;;;2.93;59.72
72558;BME280;60583;50.094;8.748;2023-04-06T00:55:23;100812.22;;;2.83;59.93
72558;BME280;60583;50.094;8.748;2023-04-06T00:57:48;100807.66;;;2.85;60.13
72558;BME280;60583;50.094;8.748;2023-04-06T01:00:15;100797.53;;;2.80;59.58
72558;BME280;60583;50.094;8.748;2023-04-06T01:02:41;100792.97;;;2.63;59.85
72558;BME280;60583;50.094;8.748;2023-04-06T01:05:07;100802.41;;;2.66;60.38
72558;BME280;60583;50.094;8.748;2023-04-06T01:07:32;100790.50;;;2.62;61.00
72558;BME280;60583;50.094;8.748;2023-04-06T01:09:58;100808.50;;;2.76;60.89
72558;BME280;60583;50.094;8.748;2023-04-06T01:12:24;100786.59;;;2.75;61.27
72558;BME280;60583;50.094;8.748;2023-04-06T01:14:50;100795.22;;;2.87;60.82
72558;BME280;60583;50.094;8.748;2023-04-06T01:17:16;100793.81;;;2.83;60.85
72558;BME280;60583;50.094;8.748;2023-04-06T01:19:41;100778.16;;;2.72;60.78
72558;BME280;60583;50.094;8.748;2023-04-06T01:22:07;100781.59;;;2.72;60.20
72558;BME280;60583;50.094;8.748;2023-04-06T01:24:32;100795.44;;;2.65;61.00
72558;BME280;60583;50.094;8.748;2023-04-06T01:26:58;100792.56;;;2.68;61.34
72558;BME280;60583;50.094;8.748;2023-04-06T01:29:24;100763.88;;;2.55;61.37
72558;BME280;60583;50.094;8.748;2023-04-06T01:31:49;100776.34;;;2.72;60.04
72558;BME280;60583;50.094;8.748;2023-04-06T01:34:15;100745.88;;;2.50;60.05
72558;BME280;60583;50.094;8.748;2023-04-06T01:36:41;100769.84;;;2.67;60.16
72558;BME280;60583;50.094;8.748;2023-04-06T01:39:06;100766.22;;;2.68;60.20
72558;BME280;60583;50.094;8.748;2023-04-06T01:41:32;100757.22;;;2.61;61.07
72558;BME280;60583;50.094;8.748;2023-04-06T01:43:57;100662.78;;;2.00;61.81
72558;BME280;60583;50.094;8.748;2023-04-06T01:46:23;100763.88;;;2.65;61.55
72558;BME280;60583;50.094;8.748;2023-04-06T01:48:49;100781.34;;;2.66;61.61
72558;BME280;60583;50.094;8.748;2023-04-06T01:51:14;100760.72;;;2.51;61.48
72558;BME280;60583;50.094;8.748;2023-04-06T01:53:40;100748.34;;;2.42;61.59
72558;BME280;60583;50.094;8.748;2023-04-06T01:56:06;100761.94;;;2.47;61.72
72558;BME280;60583;50.094;8.748;2023-04-06T01:58:31;100759.72;;;2.43;62.10
72558;BME280;60583;50.094;8.748;2023-04-06T02:00:57;100775.09;;;2.47;62.15
72558;BME280;60583;50.094;8.748;2023-04-06T02:03:22;100763.44;;;2.40;62.00
72558;BME280;60583;50.094;8.748;2023-04-06T02:05:48;100773.72;;;2.43;62.53
72558;BME280;60583;50.094;8.748;2023-04-06T02:08:13;100762.59;;;2.30;62.70
72558;BME280;60583;50.094;8.748;2023-04-06T02:10:39;100768.56;;;2.42;62.67
72558;BME280;60583;50.094;8.748;2023-04-06T02:13:05;100758.19;;;2.31;62.82
72558;BME280;60583;50.094;8.748;2023-04-06T02:15:30;100767.19;;;2.28;63.48
72558;BME280;60583;50.094;8.748;2023-04-06T02:17:57;100707.31;;;1.92;63.21
72558;BME280;60583;50.094;8.748;2023-04-06T02:20:22;100768.72;;;2.31;63.41
72558;BME280;60583;50.094;8.748;2023-04-06T02:22:47;100746.66;;;2.13;63.93
72558;BME280;60583;50.094;8.748;2023-04-06T02:25:16;100770.59;;;2.19;63.09
72558;BME280;60583;50.094;8.748;2023-04-06T02:27:42;100771.25;;;2.02;63.27
72558;BME280;60583;50.094;8.748;2023-04-06T02:30:08;100776.53;;;2.02;63.90
72558;BME280;60583;50.094;8.748;2023-04-06T02:32:33;100772.34;;;1.90;63.62
72558;BME280;60583;50.094;8.748;2023-04-06T02:34:59;100767.41;;;2.06;63.54
72558;BME280;60583;50.094;8.748;2023-04-06T02:37:25;100754.91;;;1.89;64.03
72558;BME280;60583;50.094;8.748;2023-04-06T02:39:51;100721.91;;;1.66;63.98
72558;BME280;60583;50.094;8.748;2023-04-06T02:42:16;100763.38;;;2.02;64.41
72558;BME280;60583;50.094;8.748;2023-04-06T02:44:42;100735.09;;;1.75;64.67
72558;BME280;60583;50.094;8.748;2023-04-06T02:47:08;100758.53;;;1.98;64.33
72558;BME280;60583;50.094;8.748;2023-04-06T02:49:33;100764.38;;;2.01;64.53
72558;BME280;60583;50.094;8.748;2023-04-06T02:51:59;100753.84;;;2.01;64.82
72558;BME280;60583;50.094;8.748;2023-04-06T02:54:24;100765.03;;;1.93;64.36
72558;BME280;60583;50.094;8.748;2023-04-06T02:56:50;100739.06;;;1.70;64.49
72558;BME280;60583;50.094;8.748;2023-04-06T02:59:15;100724.78;;;1.53;65.76
72558;BME280;60583;50.094;8.748;2023-04-06T03:01:41;100763.69;;;1.69;65.79
72558;BME280;60583;50.094;8.748;2023-04-06T03:04:06;100771.19;;;1.73;65.94
72558;BME280;60583;50.094;8.748;2023-04-06T03:06:32;100773.63;;;1.65;66.03
72558;BME280;60583;50.094;8.748;2023-04-06T03:08:57;100747.25;;;1.46;66.30
72558;BME280;60583;50.094;8.748;2023-04-06T03:11:23;100747.75;;;1.61;66.53
72558;BME280;60583;50.094;8.748;2023-04-06T03:13:48;100757.09;;;1.84;65.47
72558;BME280;60583;50.094;8.748;2023-04-06T03:16:14;100739.09;;;1.79;65.54
72558;BME280;60583;50.094;8.748;2023-04-06T03:18:39;100755.50;;;2.02;65.72
72558;BME280;60583;50.094;8.748;2023-04-06T03:21:05;100768.53;;;2.04;65.57
72558;BME280;60583;50.094;8.748;2023-04-06T03:23:30;100772.94;;;2.03;66.15
72558;BME280;60583;50.094;8.748;2023-04-06T03:25:56;100759.66;;;2.05;66.19
72558;BME280;60583;50.094;8.748;2023-04-06T03:28:21;100773.19;;;2.00;66.02
72558;BME280;60583;50.094;8.748;2023-04-06T03:30:47;100748.41;;;1.83;66.24
72558;BME280;60583;50.094;8.748;2023-04-06T03:33:12;100775.00;;;2.00;65.92
72558;BME280;60583;50.094;8.748;2023-04-06T03:35:38;100782.63;;;2.03;65.67
72558;BME280;60583;50.094;8.748;2023-04-06T03:38:04;100766.94;;;1.91;66.58
72558;BME280;60583;50.094;8.748;2023-04-06T03:40:32;100770.97;;;1.86;66.24
72558;BME280;60583;50.094;8.748;2023-04-06T03:42:58;100777.59;;;1.90;65.32
72558;BME280;60583;50.094;8.748;2023-04-06T03:45:23;100748.34;;;1.74;66.18
72558;BME280;60583;50.094;8.748;2023-04-06T03:47:49;100770.09;;;1.76;65.46
72558;BME280;60583;50.094;8.748;2023-04-06T03:50:14;100757.44;;;1.60;65.66
72558;BME280;60583;50.094;8.748;2023-04-06T03:52:40;100781.41;;;1.76;66.49
72558;BME280;60583;50.094;8.748;2023-04-06T03:55:07;100728.75;;;1.48;66.80
72558;BME280;60583;50.094;8.748;2023-04-06T03:57:33;100746.25;;;1.68;66.30
72558;BME280;60583;50.094;8.748;2023-04-06T03:59:58;100768.25;;;1.67;67.02
72558;BME280;60583;50.094;8.748;2023-04-06T04:02:24;100760.91;;;1.61;67.39
72558;BME280;60583;50.094;8.748;2023-04-06T04:04:50;100722.88;;;1.35;66.63
72558;BME280;60583;50.094;8.748;2023-04-06T04:07:15;100739.38;;;1.46;67.74
72558;BME280;60583;50.094;8.748;2023-04-06T04:09:40;100759.22;;;1.60;67.12
72558;BME280;60583;50.094;8.748;2023-04-06T04:12:06;100762.28;;;1.65;66.52
72558;BME280;60583;50.094;8.748;2023-04-06T04:14:31;100788.38;;;1.87;66.64
72558;BME280;60583;50.094;8.748;2023-04-06T04:16:57;100777.53;;;1.71;67.05
72558;BME280;60583;50.094;8.748;2023-04-06T04:19:22;100783.81;;;1.59;67.45
72558;BME280;60583;50.094;8.748;2023-04-06T04:21:48;100802.09;;;1.60;68.11
72558;BME280;60583;50.094;8.748;2023-04-06T04:24:14;100806.66;;;1.58;67.84
72558;BME280;60583;50.094;8.748;2023-04-06T04:26:39;100727.66;;;0.99;68.70
72558;BME280;60583;50.094;8.748;2023-04-06T04:29:05;100800.44;;;1.39;68.89
72558;BME280;60583;50.094;8.748;2023-04-06T04:31:31;100795.53;;;1.45;69.36
72558;BME280;60583;50.094;8.748;2023-04-06T04:33:57;100785.66;;;1.38;69.00
72558;BME280;60583;50.094;8.748;2023-04-06T04:36:23;100764.06;;;1.34;68.65
72558;BME280;60583;50.094;8.748;2023-04-06T04:38:51;100801.22;;;1.50;68.75
72558;BME280;60583;50.094;8.748;2023-04-06T04:41:17;100802.06;;;1.51;68.77
72558;BME280;60583;50.094;8.748;2023-04-06T04:43:43;100781.81;;;1.42;68.72
72558;BME280;60583;50.094;8.748;2023-04-06T04:46:08;100775.22;;;1.26;69.43
72558;BME280;60583;50.094;8.748;2023-04-06T04:48:34;100754.47;;;1.23;69.02
72558;BME280;60583;50.094;8.748;2023-04-06T04:51:00;100796.47;;;1.44;68.98
72558;BME280;60583;50.094;8.748;2023-04-06T04:53:25;100743.63;;;1.07;69.25
72558;BME280;60583;50.094;8.748;2023-04-06T04:55:51;100796.81;;;1.51;68.36
72558;BME280;60583;50.094;8.748;2023-04-06T04:58:16;100776.16;;;1.46;68.24
72558;BME280;60583;50.094;8.748;2023-04-06T05:00:46;100807.75;;;1.56;68.37
72558;BME280;60583;50.094;8.748;2023-04-06T05:03:23;100777.34;;;1.33;68.45
72558;BME280;60583;50.094;8.748;2023-04-06T05:05:48;100778.56;;;1.28;67.84
72558;BME280;60583;50.094;8.748;2023-04-06T05:08:15;100810.31;;;1.46;67.79
72558;BME280;60583;50.094;8.748;2023-04-06T05:10:41;100792.41;;;1.31;68.64
72558;BME280;60583;50.094;8.748;2023-04-06T05:13:06;100793.91;;;1.54;67.89
72558;BME280;60583;50.094;8.748;2023-04-06T05:15:32;100804.28;;;1.55;68.41
72558;BME280;60583;50.094;8.748;2023-04-06T05:18:00;100782.94;;;1.49;67.95
72558;BME280;60583;50.094;8.748;2023-04-06T05:20:26;100795.75;;;1.63;68.22
72558;BME280;60583;50.094;8.748;2023-04-06T05:22:53;100811.72;;;1.71;67.72
72558;BME280;60583;50.094;8.748;2023-04-06T05:25:19;100805.22;;;1.75;67.87
72558;BME280;60583;50.094;8.748;2023-04-06T05:27:44;100814.16;;;1.93;67.52
72558;BME280;60583;50.094;8.748;2023-04-06T05:30:10;100805.13;;;1.86;68.00
72558;BME280;60583;50.094;8.748;2023-04-06T05:32:35;100775.00;;;1.60;67.83
72558;BME280;60583;50.094;8.748;2023-04-06T05:35:01;100810.75;;;1.81;67.82
72558;BME280;60583;50.094;8.748;2023-04-06T05:37:27;100792.69;;;1.58;68.11
72558;BME280;60583;50.094;8.748;2023-04-06T05:39:52;100804.91;;;1.68;68.13
72558;BME280;60583;50.094;8.748;2023-04-06T05:42:18;100818.97;;;1.88;67.95
72558;BME280;60583;50.094;8.748;2023-04-06T05:44:43;100815.50;;;1.87;67.87
72558;BME280;60583;50.094;8.748;2023-04-06T05:47:09;100819.94;;;1.97;67.74
72558;BME280;60583;50.094;8.748;2023-04-06T05:49:34;100812.50;;;2.02;67.71
72558;BME280;60583;50.094;8.748;2023-04-06T05:52:00;100824.69;;;2.03;67.75
72558;BME280;60583;50.094;8.748;2023-04-06T05:54:26;100818.16;;;1.97;67.91
72558;BME280;60583;50.094;8.748;2023-04-06T05:56:52;100829.53;;;2.07;67.71
72558;BME280;60583;50.094;8.748;2023-04-06T05:59:18;100795.91;;;2.01;67.33
72558;BME280;60583;50.094;8.748;2023-04-06T06:01:43;100807.72;;;2.16;66.88
72558;BME280;60583;50.094;8.748;2023-04-06T06:04:09;100837.81;;;2.42;66.71
72558;BME280;60583;50.094;8.748;2023-04-06T06:06:35;100818.97;;;2.37;66.67
72558;BME280;60583;50.094;8.748;2023-04-06T06:09:00;100833.44;;;2.72;66.25
72558;BME280;60583;50.094;8.748;2023-04-06T06:11:27;100827.75;;;2.76;65.62
72558;BME280;60583;50.094;8.748;2023-04-06T06:13:53;100819.59;;;2.89;65.82
72558;BME280;60583;50.094;8.748;2023-04-06T06:16:19;100762.75;;;2.67;65.01
72558;BME280;60583;50.094;8.748;2023-04-06T06:18:45;100801.41;;;3.05;64.90
72558;BME280;60583;50.094;8.748;2023-04-06T06:21:11;100830.91;;;3.28;64.23
72558;BME280;60583;50.094;8.748;2023-04-06T06:23:41;100782.88;;;2.97;63.70
72558;BME280;60583;50.094;8.748;2023-04-06T06:26:07;100833.03;;;3.24;63.60
72558;BME280;60583;50.094;8.748;2023-04-06T06:28:32;100834.28;;;3.30;63.14
72558;BME280;60583;50.094;8.748;2023-04-06T06:30:58;100833.38;;;3.48;62.85
72558;BME280;60583;50.094;8.748;2023-04-06T06:33:24;100761.75;;;3.16;62.65
72558;BME280;60583;50.094;8.748;2023-04-06T06:35:51;100834.59;;;3.63;62.36
72558;BME280;60583;50.094;8.748;2023-04-06T06:38:17;100816.31;;;3.52;62.28
72558;BME280;60583;50.094;8.748;2023-04-06T06:40:42;100823.69;;;3.49;62.48
72558;BME280;60583;50.094;8.748;2023-04-06T06:43:08;100834.88;;;3.60;62.17
72558;BME280;60583;50.094;8.748;2023-04-06T06:45:33;100830.00;;;3.75;61.63
72558;BME280;60583;50.094;8.748;2023-04-06T06:47:59;100841.22;;;4.14;61.07
72558;BME280;60583;50.094;8.748;2023-04-06T06:50:24;100830.38;;;4.17;60.67
72558;BME280;60583;50.094;8.748;2023-04-06T06:52:50;100811.47;;;4.21;59.96
72558;BME280;60583;50.094;8.748;2023-04-06T06:55:15;100815.97;;;4.56;59.24
72558;BME280;60583;50.094;8.748;2023-04-06T06:57:41;100827.53;;;4.73;58.77
72558;BME280;60583;50.094;8.748;2023-04-06T07:00:08;100825.88;;;4.72;58.84
72558;BME280;60583;50.094;8.748;2023-04-06T07:02:34;100823.47;;;5.13;59.42
72558;BME280;60583;50.094;8.748;2023-04-06T07:05:03;100815.75;;;5.46;58.40
72558;BME280;60583;50.094;8.748;2023-04-06T07:07:31;100757.78;;;5.52;56.98
72558;BME280;60583;50.094;8.748;2023-04-06T07:09:56;100826.69;;;6.02;55.92
72558;BME280;60583;50.094;8.748;2023-04-06T07:12:22;100819.91;;;6.00;55.18
72558;BME280;60583;50.094;8.748;2023-04-06T07:14:47;100809.22;;;6.17;54.69
72558;BME280;60583;50.094;8.748;2023-04-06T07:17:13;100785.56;;;6.16;54.34
72558;BME280;60583;50.094;8.748;2023-04-06T07:19:39;100760.06;;;6.15;53.54
72558;BME280;60583;50.094;8.748;2023-04-06T07:22:04;100814.53;;;6.83;53.50
72558;BME280;60583;50.094;8.748;2023-04-06T07:24:30;100808.38;;;6.83;50.67
72558;BME280;60583;50.094;8.748;2023-04-06T07:26:55;100823.97;;;7.10;50.58
72558;BME280;60583;50.094;8.748;2023-04-06T07:29:21;100820.50;;;7.34;51.36
72558;BME280;60583;50.094;8.748;2023-04-06T07:31:48;100715.28;;;6.78;50.10
72558;BME280;60583;50.094;8.748;2023-04-06T07:34:14;100817.34;;;7.46;49.84
72558;BME280;60583;50.094;8.748;2023-04-06T07:36:40;100819.00;;;7.31;49.46
72558;BME280;60583;50.094;8.748;2023-04-06T07:39:07;100829.63;;;7.23;49.48
72558;BME280;60583;50.094;8.748;2023-04-06T07:41:32;100788.50;;;7.35;49.66
72558;BME280;60583;50.094;8.748;2023-04-06T07:43:58;100798.94;;;7.37;47.94
72558;BME280;60583;50.094;8.748;2023-04-06T07:46:24;100822.78;;;7.69;47.98
72558;BME280;60583;50.094;8.748;2023-04-06T07:48:49;100813.84;;;7.70;48.48
72558;BME280;60583;50.094;8.748;2023-04-06T07:51:15;100820.75;;;7.87;47.43
72558;BME280;60583;50.094;8.748;2023-04-06T07:53:44;100815.09;;;7.90;47.37
72558;BME280;60583;50.094;8.748;2023-04-06T07:56:09;100794.19;;;7.87;46.71
72558;BME280;60583;50.094;8.748;2023-04-06T07:58:35;100800.97;;;7.98;48.06
72558;BME280;60583;50.094;8.748;2023-04-06T08:01:01;100823.78;;;8.23;46.48
72558;BME280;60583;50.094;8.748;2023-04-06T08:03:26;100805.38;;;8.52;45.93
72558;BME280;60583;50.094;8.748;2023-04-06T08:05:52;100803.06;;;8.80;46.90
72558;BME280;60583;50.094;8.748;2023-04-06T08:08:18;100782.59;;;9.03;45.34
72558;BME280;60583;50.094;8.748;2023-04-06T08:10:44;100793.06;;;9.42;45.41
72558;BME280;60583;50.094;8.748;2023-04-06T08:13:10;100821.34;;;9.43;44.32
72558;BME280;60583;50.094;8.748;2023-04-06T08:15:35;100796.50;;;9.13;43.98
72558;BME280;60583;50.094;8.748;2023-04-06T08:18:01;100785.72;;;9.07;44.45
72558;BME280;60583;50.094;8.748;2023-04-06T08:20:26;100811.41;;;9.37;43.50
72558;BME280;60583;50.094;8.748;2023-04-06T08:22:52;100817.97;;;9.63;43.31
72558;BME280;60583;50.094;8.748;2023-04-06T08:25:17;100759.75;;;9.60;43.00
72558;BME280;60583;50.094;8.748;2023-04-06T08:27:43;100814.06;;;10.18;43.04
72558;BME280;60583;50.094;8.748;2023-04-06T08:30:08;100816.34;;;10.36;41.75
72558;BME280;60583;50.094;8.748;2023-04-06T08:32:34;100800.91;;;9.87;41.38
72558;BME280;60583;50.094;8.748;2023-04-06T08:35:00;100810.38;;;10.34;41.48
72558;BME280;60583;50.094;8.748;2023-04-06T08:37:26;100804.28;;;10.75;40.31
72558;BME280;60583;50.094;8.748;2023-04-06T08:39:51;100786.44;;;10.97;41.17
72558;BME280;60583;50.094;8.748;2023-04-06T08:42:19;100795.22;;;11.12;39.31
72558;BME280;60583;50.094;8.748;2023-04-06T08:44:48;100810.72;;;11.02;39.32
72558;BME280;60583;50.094;8.748;2023-04-06T08:47:13;100773.34;;;11.02;38.07
72558;BME280;60583;50.094;8.748;2023-04-06T08:49:39;100772.94;;;11.26;39.92
72558;BME280;60583;50.094;8.748;2023-04-06T08:52:10;100796.03;;;11.40;38.03
72558;BME280;60583;50.094;8.748;2023-04-06T08:54:36;100804.97;;;11.05;38.01
72558;BME280;60583;50.094;8.748;2023-04-06T08:57:02;100794.94;;;10.86;38.54
72558;BME280;60583;50.094;8.748;2023-04-06T08:59:28;100796.22;;;10.90;38.23
72558;BME280;60583;50.094;8.748;2023-04-06T09:01:54;100796.97;;;11.26;38.59
72558;BME280;60583;50.094;8.748;2023-04-06T09:04:20;100780.06;;;11.19;38.08
72558;BME280;60583;50.094;8.748;2023-04-06T09:06:46;100801.88;;;11.50;37.97
72558;BME280;60583;50.094;8.748;2023-04-06T09:09:11;100793.22;;;11.70;38.77
72558;BME280;60583;50.094;8.748;2023-04-06T09:11:45;100761.56;;;12.07;38.54
72558;BME280;60583;50.094;8.748;2023-04-06T09:14:10;100771.81;;;12.64;37.93
72558;BME280;60583;50.094;8.748;2023-04-06T09:16:40;100794.94;;;12.92;35.53
72558;BME280;60583;50.094;8.748;2023-04-06T09:19:07;100788.16;;;13.02;35.41
72558;BME280;60583;50.094;8.748;2023-04-06T09:21:33;100785.31;;;13.43;36.00
72558;BME280;60583;50.094;8.748;2023-04-06T09:24:00;100787.19;;;13.23;34.43
72558;BME280;60583;50.094;8.748;2023-04-06T09:26:25;100778.31;;;13.49;34.56
72558;BME280;60583;50.094;8.748;2023-04-06T09:28:57;100774.97;;;13.73;34.20
72558;BME280;60583;50.094;8.748;2023-04-06T09:33:48;100769.03;;;13.12;33.69
72558;BME280;60583;50.094;8.748;2023-04-06T09:36:13;100774.59;;;13.56;34.98
72558;BME280;60583;50.094;8.748;2023-04-06T09:39:02;100763.69;;;13.25;33.83
72558;BME280;60583;50.094;8.748;2023-04-06T09:41:30;100756.25;;;13.27;33.29
72558;BME280;60583;50.094;8.748;2023-04-06T09:44:06;100743.31;;;13.24;33.45
72558;BME280;60583;50.094;8.748;2023-04-06T09:46:34;100761.19;;;13.50;33.30
72558;BME280;60583;50.094;8.748;2023-04-06T09:49:02;100759.50;;;13.68;32.91
72558;BME280;60583;50.094;8.748;2023-04-06T09:51:30;100753.72;;;14.42;31.87
72558;BME280;60583;50.094;8.748;2023-04-06T09:53:56;100761.09;;;14.84;32.21
72558;BME280;60583;50.094;8.748;2023-04-06T09:56:28;100760.44;;;15.13;30.86
72558;BME280;60583;50.094;8.748;2023-04-06T09:59:02;100734.06;;;15.28;30.82
72558;BME280;60583;50.094;8.748;2023-04-06T10:01:30;100737.44;;;15.67;30.52
72558;BME280;60583;50.094;8.748;2023-04-06T10:04:03;100764.81;;;16.18;29.45
72558;BME280;60583;50.094;8.748;2023-04-06T10:06:34;100731.66;;;15.88;28.98
72558;BME280;60583;50.094;8.748;2023-04-06T10:09:02;100770.56;;;16.70;28.09
72558;BME280;60583;50.094;8.748;2023-04-06T10:11:30;100733.81;;;16.87;27.89
72558;BME280;60583;50.094;8.748;2023-04-06T10:13:56;100747.16;;;16.70;27.23
72558;BME280;60583;50.094;8.748;2023-04-06T10:16:22;100726.41;;;17.23;27.09
72558;BME280;60583;50.094;8.748;2023-04-06T10:18:52;100758.81;;;16.94;27.83
72558;BME280;60583;50.094;8.748;2023-04-06T10:21:20;100746.44;;;17.97;27.17
72558;BME280;60583;50.094;8.748;2023-04-06T10:23:50;100715.00;;;18.76;25.68
72558;BME280;60583;50.094;8.748;2023-04-06T10:26:19;100714.16;;;19.20;25.43
72558;BME280;60583;50.094;8.748;2023-04-06T10:28:47;100748.25;;;20.36;23.88
72558;BME280;60583;50.094;8.748;2023-04-06T10:31:12;100717.09;;;18.85;24.08
72558;BME280;60583;50.094;8.748;2023-04-06T10:33:39;100736.06;;;18.74;24.67
72558;BME280;60583;50.094;8.748;2023-04-06T10:36:21;100679.13;;;17.67;25.13
72558;BME280;60583;50.094;8.748;2023-04-06T10:38:46;100725.69;;;18.82;24.58
72558;BME280;60583;50.094;8.748;2023-04-06T10:41:12;100728.16;;;18.56;24.99
72558;BME280;60583;50.094;8.748;2023-04-06T10:43:40;100714.66;;;19.72;23.53
72558;BME280;60583;50.094;8.748;2023-04-06T10:46:09;100677.38;;;19.79;22.59
72558;BME280;60583;50.094;8.748;2023-04-06T10:48:44;100708.50;;;21.32;22.44
72558;BME280;60583;50.094;8.748;2023-04-06T10:51:16;100692.13;;;21.69;21.45
72558;BME280;60583;50.094;8.748;2023-04-06T10:53:46;100716.00;;;20.93;21.77
72558;BME280;60583;50.094;8.748;2023-04-06T10:56:15;100710.13;;;21.80;20.86
72558;BME280;60583;50.094;8.748;2023-04-06T10:58:59;100693.75;;;21.65;20.38
72558;BME280;60583;50.094;8.748;2023-04-06T11:01:24;100704.91;;;22.25;20.52
72558;BME280;60583;50.094;8.748;2023-04-06T11:03:53;100711.97;;;22.36;20.31
72558;BME280;60583;50.094;8.748;2023-04-06T11:06:23;100687.47;;;20.85;21.34
72558;BME280;60583;50.094;8.748;2023-04-06T11:08:50;100712.97;;;20.58;21.33
72558;BME280;60583;50.094;8.748;2023-04-06T11:11:18;100708.28;;;20.48;22.22
72558;BME280;60583;50.094;8.748;2023-04-06T11:13:50;100706.91;;;20.02;22.38
72558;BME280;60583;50.094;8.748;2023-04-06T11:16:26;100683.34;;;19.38;22.85
72558;BME280;60583;50.094;8.748;2023-04-06T11:21:38;100692.16;;;19.50;23.23
72558;BME280;60583;50.094;8.748;2023-04-06T11:24:05;100680.56;;;19.71;22.71
72558;BME280;60583;50.094;8.748;2023-04-06T11:26:31;100706.84;;;19.97;22.37
72558;BME280;60583;50.094;8.748;2023-04-06T11:28:56;100663.00;;;19.73;22.51
72558;BME280;60583;50.094;8.748;2023-04-06T11:31:25;100690.31;;;20.69;21.67
72558;BME280;60583;50.094;8.748;2023-04-06T11:33:56;100685.47;;;20.22;22.05
72558;BME280;60583;50.094;8.748;2023-04-06T11:36:21;100669.28;;;20.81;21.44
72558;BME280;60583;50.094;8.748;2023-04-06T11:38:47;100663.34;;;21.68;20.87
72558;BME280;60583;50.094;8.748;2023-04-06T11:41:12;100633.00;;;21.24;21.01
72558;BME280;60583;50.094;8.748;2023-04-06T11:43:38;100658.72;;;20.53;22.12
72558;BME280;60583;50.094;8.748;2023-04-06T11:46:04;100662.94;;;20.17;21.64
72558;BME280;60583;50.094;8.748;2023-04-06T11:48:30;100665.50;;;20.23;22.01
72558;BME280;60583;50.094;8.748;2023-04-06T11:50:59;100687.50;;;19.45;22.26
72558;BME280;60583;50.094;8.748;2023-04-06T11:53:29;100678.16;;;19.20;22.81
72558;BME280;60583;50.094;8.748;2023-04-06T11:55:55;100665.34;;;19.32;22.53
72558;BME280;60583;50.094;8.748;2023-04-06T11:58:21;100647.22;;;20.14;22.20
72558;BME280;60583;50.094;8.748;2023-04-06T12:00:46;100645.94;;;18.80;23.63
72558;BME280;60583;50.094;8.748;2023-04-06T12:03:12;100654.28;;;19.50;22.71
72558;BME280;60583;50.094;8.748;2023-04-06T12:05:38;100643.03;;;19.58;22.78
72558;BME280;60583;50.094;8.748;2023-04-06T12:08:04;100645.97;;;18.68;22.97
72558;BME280;60583;50.094;8.748;2023-04-06T12:10:30;100619.31;;;19.27;23.07
72558;BME280;60583;50.094;8.748;2023-04-06T12:12:56;100647.94;;;19.61;23.33
72558;BME280;60583;50.094;8.748;2023-04-06T12:15:21;100642.13;;;19.14;23.63
72558;BME280;60583;50.094;8.748;2023-04-06T12:17:47;100639.31;;;19.26;22.40
72558;BME280;60583;50.094;8.748;2023-04-06T12:20:13;100642.72;;;18.38;24.65
72558;BME280;60583;50.094;8.748;2023-04-06T12:22:39;100637.28;;;17.65;24.39
72558;BME280;60583;50.094;8.748;2023-04-06T12:25:05;100587.41;;;17.04;24.75
72558;BME280;60583;50.094;8.748;2023-04-06T12:27:32;100620.09;;;17.08;25.59
72558;BME280;60583;50.094;8.748;2023-04-06T12:29:57;100635.81;;;17.11;25.75
72558;BME280;60583;50.094;8.748;2023-04-06T12:32:23;100633.50;;;18.06;24.77
72558;BME280;60583;50.094;8.748;2023-04-06T12:34:48;100619.03;;;17.32;24.91
72558;BME280;60583;50.094;8.748;2023-04-06T12:37:14;100635.03;;;17.73;24.33
72558;BME280;60583;50.094;8.748;2023-04-06T12:39:40;100623.94;;;17.35;24.64
72558;BME280;60583;50.094;8.748;2023-04-06T12:42:05;100623.84;;;17.07;25.02
72558;BME280;60583;50.094;8.748;2023-04-06T12:44:31;100602.09;;;16.32;24.35
72558;BME280;60583;50.094;8.748;2023-04-06T12:46:56;100635.22;;;16.86;24.49
72558;BME280;60583;50.094;8.748;2023-04-06T12:49:22;100620.94;;;16.32;24.77
72558;BME280;60583;50.094;8.748;2023-04-06T12:51:47;100615.75;;;16.19;23.90
72558;BME280;60583;50.094;8.748;2023-04-06T12:54:13;100594.84;;;15.73;25.13
72558;BME280;60583;50.094;8.748;2023-04-06T12:56:38;100616.41;;;16.03;26.02
72558;BME280;60583;50.094;8.748;2023-04-06T12:59:04;100598.69;;;16.25;25.65